Pullman, West Virginia
Current Conditions -  °F | °C
As of 10:53 PM on Tuesday 25 Nov 2014 (Local Time) from KPKB Reporting Station
Clear Clear  
Wind Chill: 32°   Ceiling: Unl
Heat Index: 36°   Visibility: 10mi
Dew Point: 26°   Wind: 5mph
Humidity: 67%   Direction: 30°NNE
Pressure: 30.18"   Gusts: NA
Location:  39.19°N, 80.95°W
Report Text: KPKB 260353Z 03004KT 10SM CLR 02/M03 A3018 RMK AO2 SLP225 T00221033
Loading
Personal Weather Stations






























Interactive Weather Map New forecast layout! Learn more

10-Day Weather Forecast

Advertisements
Track Severe Weather on mobile